sensor_id;sensor_type;location;lat;lon;timestamp;pressure;altitude;pressure_sealevel;temperature;humidity
27425;BME280;15244;49.088;11.886;2023-01-29T00:03:39;96755.16;;;2.27;51.45
27425;BME280;15244;49.088;11.886;2023-01-29T00:08:41;96733.63;;;2.27;51.23
27425;BME280;15244;49.088;11.886;2023-01-29T00:13:43;96734.91;;;2.30;51.55
27425;BME280;15244;49.088;11.886;2023-01-29T00:18:48;96741.16;;;2.39;51.51
27425;BME280;15244;49.088;11.886;2023-01-29T00:23:53;96737.56;;;2.44;51.07
27425;BME280;15244;49.088;11.886;2023-01-29T00:28:55;96744.72;;;2.48;51.21
27425;BME280;15244;49.088;11.886;2023-01-29T00:33:57;96739.38;;;2.57;51.36
27425;BME280;15244;49.088;11.886;2023-01-29T00:39:00;96729.13;;;2.59;51.38
27425;BME280;15244;49.088;11.886;2023-01-29T00:44:11;96728.97;;;2.64;51.07
27425;BME280;15244;49.088;11.886;2023-01-29T00:49:34;96725.06;;;2.70;51.14
27425;BME280;15244;49.088;11.886;2023-01-29T00:54:36;96725.38;;;2.69;50.96
27425;BME280;15244;49.088;11.886;2023-01-29T00:59:38;96721.28;;;2.71;50.60
27425;BME280;15244;49.088;11.886;2023-01-29T01:04:41;96716.84;;;2.75;50.61
27425;BME280;15244;49.088;11.886;2023-01-29T01:09:45;96722.06;;;2.72;50.56
27425;BME280;15244;49.088;11.886;2023-01-29T01:15:11;96720.91;;;2.64;50.41
27425;BME280;15244;49.088;11.886;2023-01-29T01:20:14;96706.94;;;2.62;50.49
27425;BME280;15244;49.088;11.886;2023-01-29T01:25:19;96719.78;;;2.65;50.34
27425;BME280;15244;49.088;11.886;2023-01-29T01:30:22;96719.16;;;2.68;50.37
27425;BME280;15244;49.088;11.886;2023-01-29T01:35:29;96713.50;;;2.70;50.23
27425;BME280;15244;49.088;11.886;2023-01-29T01:40:43;96694.66;;;2.70;50.24
27425;BME280;15244;49.088;11.886;2023-01-29T01:45:46;96701.31;;;2.72;50.32
27425;BME280;15244;49.088;11.886;2023-01-29T01:50:59;96698.31;;;2.74;50.26
27425;BME280;15244;49.088;11.886;2023-01-29T01:56:13;96691.81;;;2.75;49.88
27425;BME280;15244;49.088;11.886;2023-01-29T02:01:17;96690.41;;;2.77;50.23
27425;BME280;15244;49.088;11.886;2023-01-29T02:06:21;96691.69;;;2.80;50.16
27425;BME280;15244;49.088;11.886;2023-01-29T02:11:41;96704.03;;;2.81;50.18
27425;BME280;15244;49.088;11.886;2023-01-29T02:16:46;96713.72;;;2.82;50.12
27425;BME280;15244;49.088;11.886;2023-01-29T02:22:17;96705.31;;;2.83;49.90
27425;BME280;15244;49.088;11.886;2023-01-29T02:27:34;96704.22;;;2.85;50.01
27425;BME280;15244;49.088;11.886;2023-01-29T02:33:18;96706.63;;;2.86;50.00
27425;BME280;15244;49.088;11.886;2023-01-29T02:38:35;96710.41;;;2.85;49.64
27425;BME280;15244;49.088;11.886;2023-01-29T02:54:23;96701.25;;;2.86;49.41
27425;BME280;15244;49.088;11.886;2023-01-29T02:59:43;96696.63;;;2.87;49.14
27425;BME280;15244;49.088;11.886;2023-01-29T03:04:51;96702.16;;;2.81;48.90
27425;BME280;15244;49.088;11.886;2023-01-29T03:10:05;96695.50;;;2.79;48.52
27425;BME280;15244;49.088;11.886;2023-01-29T03:15:17;96697.38;;;2.78;48.31
27425;BME280;15244;49.088;11.886;2023-01-29T03:20:49;96693.41;;;2.76;48.27
27425;BME280;15244;49.088;11.886;2023-01-29T03:25:57;96697.81;;;2.72;48.32
27425;BME280;15244;49.088;11.886;2023-01-29T03:31:23;96703.97;;;2.64;48.06
27425;BME280;15244;49.088;11.886;2023-01-29T03:42:19;96722.00;;;2.63;47.86
27425;BME280;15244;49.088;11.886;2023-01-29T03:58:31;96743.78;;;2.53;47.37
27425;BME280;15244;49.088;11.886;2023-01-29T04:03:41;96727.16;;;2.51;47.69
27425;BME280;15244;49.088;11.886;2023-01-29T04:14:08;96727.72;;;2.39;47.37
27425;BME280;15244;49.088;11.886;2023-01-29T04:19:10;96722.75;;;2.32;47.15
27425;BME280;15244;49.088;11.886;2023-01-29T04:24:15;96736.94;;;2.24;47.52
27425;BME280;15244;49.088;11.886;2023-01-29T04:29:34;96734.19;;;2.15;47.20
27425;BME280;15244;49.088;11.886;2023-01-29T04:41:01;96731.00;;;2.13;47.01
27425;BME280;15244;49.088;11.886;2023-01-29T04:46:12;96742.38;;;2.10;47.30
27425;BME280;15244;49.088;11.886;2023-01-29T04:51:49;96740.38;;;2.02;47.48
27425;BME280;15244;49.088;11.886;2023-01-29T04:56:56;96728.94;;;1.97;47.48
27425;BME280;15244;49.088;11.886;2023-01-29T05:02:03;96736.03;;;1.92;47.23
27425;BME280;15244;49.088;11.886;2023-01-29T05:07:10;96722.59;;;1.92;47.01
27425;BME280;15244;49.088;11.886;2023-01-29T05:12:16;96712.84;;;1.83;46.95
27425;BME280;15244;49.088;11.886;2023-01-29T05:17:19;96700.59;;;1.77;47.06
27425;BME280;15244;49.088;11.886;2023-01-29T05:22:23;96708.88;;;1.80;47.06
27425;BME280;15244;49.088;11.886;2023-01-29T05:27:30;96706.88;;;1.86;47.51
27425;BME280;15244;49.088;11.886;2023-01-29T05:32:54;96702.56;;;1.85;46.98
27425;BME280;15244;49.088;11.886;2023-01-29T05:37:55;96711.25;;;1.82;47.08
27425;BME280;15244;49.088;11.886;2023-01-29T05:43:04;96712.16;;;1.77;47.17
27425;BME280;15244;49.088;11.886;2023-01-29T05:48:06;96728.59;;;1.76;47.13
27425;BME280;15244;49.088;11.886;2023-01-29T05:53:10;96726.41;;;1.78;46.91
27425;BME280;15244;49.088;11.886;2023-01-29T05:58:11;96716.34;;;1.83;46.93
27425;BME280;15244;49.088;11.886;2023-01-29T06:03:13;96716.84;;;1.85;46.97
27425;BME280;15244;49.088;11.886;2023-01-29T06:08:17;96696.41;;;1.84;46.98
27425;BME280;15244;49.088;11.886;2023-01-29T06:13:31;96695.44;;;1.80;46.92
27425;BME280;15244;49.088;11.886;2023-01-29T06:18:35;96683.97;;;1.74;46.72
27425;BME280;15244;49.088;11.886;2023-01-29T06:23:39;96680.63;;;1.69;46.72
27425;BME280;15244;49.088;11.886;2023-01-29T06:28:42;96669.84;;;1.69;46.69
27425;BME280;15244;49.088;11.886;2023-01-29T06:33:46;96667.97;;;1.69;47.11
27425;BME280;15244;49.088;11.886;2023-01-29T06:38:47;96677.63;;;1.70;46.64
27425;BME280;15244;49.088;11.886;2023-01-29T06:43:49;96679.53;;;1.70;46.77
27425;BME280;15244;49.088;11.886;2023-01-29T06:48:51;96688.06;;;1.72;46.90
27425;BME280;15244;49.088;11.886;2023-01-29T06:53:52;96687.78;;;1.73;46.53
27425;BME280;15244;49.088;11.886;2023-01-29T06:58:56;96701.72;;;1.76;46.54
27425;BME280;15244;49.088;11.886;2023-01-29T07:03:57;96711.84;;;1.79;46.72
27425;BME280;15244;49.088;11.886;2023-01-29T07:08:59;96713.06;;;1.72;46.79
27425;BME280;15244;49.088;11.886;2023-01-29T07:14:01;96720.94;;;1.69;47.08
27425;BME280;15244;49.088;11.886;2023-01-29T07:19:02;96720.25;;;1.63;46.81
27425;BME280;15244;49.088;11.886;2023-01-29T07:24:04;96718.47;;;1.59;46.91
27425;BME280;15244;49.088;11.886;2023-01-29T07:29:06;96714.50;;;1.56;46.44
27425;BME280;15244;49.088;11.886;2023-01-29T07:34:07;96718.47;;;1.59;46.55
27425;BME280;15244;49.088;11.886;2023-01-29T07:39:09;96725.91;;;1.62;46.66
27425;BME280;15244;49.088;11.886;2023-01-29T07:44:10;96723.72;;;1.64;46.81
27425;BME280;15244;49.088;11.886;2023-01-29T07:49:12;96731.50;;;1.65;46.83
27425;BME280;15244;49.088;11.886;2023-01-29T07:54:14;96723.22;;;1.62;46.52
27425;BME280;15244;49.088;11.886;2023-01-29T07:59:15;96729.03;;;1.55;46.90
27425;BME280;15244;49.088;11.886;2023-01-29T08:04:17;96722.97;;;1.49;47.06
27425;BME280;15244;49.088;11.886;2023-01-29T08:09:19;96745.75;;;1.52;47.06
27425;BME280;15244;49.088;11.886;2023-01-29T08:14:20;96760.88;;;1.48;46.68
27425;BME280;15244;49.088;11.886;2023-01-29T08:19:22;96766.38;;;1.43;46.63
27425;BME280;15244;49.088;11.886;2023-01-29T08:24:24;96751.31;;;1.42;47.19
27425;BME280;15244;49.088;11.886;2023-01-29T08:29:42;96762.06;;;1.42;46.85
27425;BME280;15244;49.088;11.886;2023-01-29T08:34:43;96763.97;;;1.41;46.65
27425;BME280;15244;49.088;11.886;2023-01-29T08:39:45;96772.34;;;1.40;46.64
27425;BME280;15244;49.088;11.886;2023-01-29T08:44:46;96781.38;;;1.44;47.18
27425;BME280;15244;49.088;11.886;2023-01-29T08:49:48;96784.06;;;1.44;47.46
27425;BME280;15244;49.088;11.886;2023-01-29T08:54:49;96794.03;;;1.43;47.01
27425;BME280;15244;49.088;11.886;2023-01-29T08:59:51;96809.53;;;1.46;47.01
27425;BME280;15244;49.088;11.886;2023-01-29T09:04:52;96807.69;;;1.47;47.32
27425;BME280;15244;49.088;11.886;2023-01-29T09:09:54;96810.38;;;1.47;46.82
27425;BME280;15244;49.088;11.886;2023-01-29T09:14:56;96807.84;;;1.37;47.23
27425;BME280;15244;49.088;11.886;2023-01-29T09:19:57;96797.09;;;1.37;46.60
27425;BME280;15244;49.088;11.886;2023-01-29T09:24:59;96787.34;;;1.41;47.15
27425;BME280;15244;49.088;11.886;2023-01-29T09:30:01;96780.81;;;1.47;47.27
27425;BME280;15244;49.088;11.886;2023-01-29T09:35:03;96784.38;;;1.56;47.54
27425;BME280;15244;49.088;11.886;2023-01-29T09:40:05;96782.38;;;1.62;47.49
27425;BME280;15244;49.088;11.886;2023-01-29T09:45:21;96773.31;;;1.71;47.46
27425;BME280;15244;49.088;11.886;2023-01-29T09:50:37;96761.38;;;1.78;47.24
27425;BME280;15244;49.088;11.886;2023-01-29T09:55:55;96757.28;;;1.80;47.40
27425;BME280;15244;49.088;11.886;2023-01-29T10:01:16;96743.22;;;1.83;47.37
27425;BME280;15244;49.088;11.886;2023-01-29T10:17:30;96740.38;;;2.02;47.11
27425;BME280;15244;49.088;11.886;2023-01-29T10:27:57;96748.53;;;2.11;46.59
27425;BME280;15244;49.088;11.886;2023-01-29T10:33:05;96742.94;;;2.07;46.74
27425;BME280;15244;49.088;11.886;2023-01-29T10:38:28;96755.22;;;2.00;46.74
27425;BME280;15244;49.088;11.886;2023-01-29T10:43:53;96720.38;;;1.94;46.54
27425;BME280;15244;49.088;11.886;2023-01-29T10:49:19;96719.28;;;1.95;46.55
27425;BME280;15244;49.088;11.886;2023-01-29T10:54:43;96723.16;;;2.03;46.92
27425;BME280;15244;49.088;11.886;2023-01-29T11:00:02;96704.22;;;2.08;46.57
27425;BME280;15244;49.088;11.886;2023-01-29T11:05:18;96696.81;;;2.14;46.93
27425;BME280;15244;49.088;11.886;2023-01-29T11:10:22;96704.09;;;2.13;46.39
27425;BME280;15244;49.088;11.886;2023-01-29T11:15:29;96690.69;;;2.22;46.60
27425;BME280;15244;49.088;11.886;2023-01-29T11:20:32;96697.56;;;2.28;46.31
27425;BME280;15244;49.088;11.886;2023-01-29T11:25:35;96711.47;;;2.30;46.26
27425;BME280;15244;49.088;11.886;2023-01-29T11:30:38;96707.59;;;2.36;46.33
27425;BME280;15244;49.088;11.886;2023-01-29T11:35:40;96689.03;;;2.35;46.11
27425;BME280;15244;49.088;11.886;2023-01-29T11:40:42;96669.00;;;2.41;46.19
27425;BME280;15244;49.088;11.886;2023-01-29T11:45:45;96648.13;;;2.47;46.09
27425;BME280;15244;49.088;11.886;2023-01-29T11:50:52;96644.81;;;2.50;46.21
27425;BME280;15244;49.088;11.886;2023-01-29T11:55:54;96637.38;;;2.55;46.39
27425;BME280;15244;49.088;11.886;2023-01-29T12:00:56;96622.84;;;2.56;45.96
27425;BME280;15244;49.088;11.886;2023-01-29T12:06:22;96621.59;;;2.63;46.20
27425;BME280;15244;49.088;11.886;2023-01-29T12:11:31;96617.00;;;2.63;46.12
27425;BME280;15244;49.088;11.886;2023-01-29T12:16:45;96600.38;;;2.61;45.72
27425;BME280;15244;49.088;11.886;2023-01-29T12:21:54;96596.72;;;2.57;45.69
27425;BME280;15244;49.088;11.886;2023-01-29T12:27:04;96607.03;;;2.64;45.50
27425;BME280;15244;49.088;11.886;2023-01-29T12:32:24;96604.34;;;2.64;45.93
27425;BME280;15244;49.088;11.886;2023-01-29T12:42:49;96581.72;;;2.73;45.56
27425;BME280;15244;49.088;11.886;2023-01-29T12:47:59;96584.09;;;2.75;45.82
27425;BME280;15244;49.088;11.886;2023-01-29T12:53:10;96587.59;;;2.75;45.72
27425;BME280;15244;49.088;11.886;2023-01-29T12:58:23;96577.78;;;2.79;45.68
27425;BME280;15244;49.088;11.886;2023-01-29T13:03:34;96559.25;;;2.78;45.42
27425;BME280;15244;49.088;11.886;2023-01-29T13:08:44;96554.63;;;2.78;45.51
27425;BME280;15244;49.088;11.886;2023-01-29T13:13:53;96553.84;;;2.78;45.48
27425;BME280;15244;49.088;11.886;2023-01-29T13:19:05;96546.56;;;2.78;45.43
27425;BME280;15244;49.088;11.886;2023-01-29T13:24:14;96551.94;;;2.78;45.63
27425;BME280;15244;49.088;11.886;2023-01-29T13:29:24;96540.38;;;2.78;45.28
27425;BME280;15244;49.088;11.886;2023-01-29T13:34:30;96545.13;;;2.81;45.60
27425;BME280;15244;49.088;11.886;2023-01-29T13:39:39;96542.94;;;2.83;45.38
27425;BME280;15244;49.088;11.886;2023-01-29T13:44:49;96542.78;;;2.88;45.73
27425;BME280;15244;49.088;11.886;2023-01-29T13:55:18;96563.06;;;2.86;45.42
27425;BME280;15244;49.088;11.886;2023-01-29T14:05:41;96549.78;;;2.89;45.14
27425;BME280;15244;49.088;11.886;2023-01-29T14:10:43;96539.50;;;2.91;45.20
27425;BME280;15244;49.088;11.886;2023-01-29T14:26:39;96517.78;;;2.96;45.29
27425;BME280;15244;49.088;11.886;2023-01-29T14:31:52;96531.41;;;3.00;45.45
27425;BME280;15244;49.088;11.886;2023-01-29T14:36:58;96533.63;;;2.98;45.26
27425;BME280;15244;49.088;11.886;2023-01-29T14:42:13;96509.22;;;2.94;45.49
27425;BME280;15244;49.088;11.886;2023-01-29T14:47:20;96519.03;;;2.90;45.42
27425;BME280;15244;49.088;11.886;2023-01-29T14:52:51;96527.75;;;2.87;45.53
27425;BME280;15244;49.088;11.886;2023-01-29T14:57:55;96512.53;;;2.82;45.43
27425;BME280;15244;49.088;11.886;2023-01-29T15:02:59;96514.56;;;2.77;45.20
27425;BME280;15244;49.088;11.886;2023-01-29T15:13:43;96507.28;;;2.69;45.41
27425;BME280;15244;49.088;11.886;2023-01-29T15:18:51;96500.78;;;2.70;45.30
27425;BME280;15244;49.088;11.886;2023-01-29T15:24:05;96497.44;;;2.64;45.74
27425;BME280;15244;49.088;11.886;2023-01-29T15:29:21;96493.47;;;2.62;45.45
27425;BME280;15244;49.088;11.886;2023-01-29T15:34:23;96491.88;;;2.60;45.43
27425;BME280;15244;49.088;11.886;2023-01-29T15:39:25;96495.84;;;2.63;45.32
27425;BME280;15244;49.088;11.886;2023-01-29T15:44:29;96499.34;;;2.64;45.66
27425;BME280;15244;49.088;11.886;2023-01-29T15:49:31;96499.66;;;2.62;45.88
27425;BME280;15244;49.088;11.886;2023-01-29T15:54:34;96492.06;;;2.64;45.00
27425;BME280;15244;49.088;11.886;2023-01-29T15:59:41;96491.09;;;2.60;45.31
27425;BME280;15244;49.088;11.886;2023-01-29T16:04:44;96491.72;;;2.57;45.74
27425;BME280;15244;49.088;11.886;2023-01-29T16:09:47;96491.41;;;2.58;45.59
27425;BME280;15244;49.088;11.886;2023-01-29T16:14:50;96487.59;;;2.59;45.74
27425;BME280;15244;49.088;11.886;2023-01-29T16:19:59;96487.31;;;2.61;45.62
27425;BME280;15244;49.088;11.886;2023-01-29T16:25:07;96483.19;;;2.64;45.78
27425;BME280;15244;49.088;11.886;2023-01-29T16:30:15;96487.31;;;2.61;45.38
27425;BME280;15244;49.088;11.886;2023-01-29T16:35:17;96486.03;;;2.58;45.63
27425;BME280;15244;49.088;11.886;2023-01-29T16:40:29;96481.44;;;2.59;45.92
27425;BME280;15244;49.088;11.886;2023-01-29T16:45:34;96491.72;;;2.57;45.63
27425;BME280;15244;49.088;11.886;2023-01-29T16:50:36;96491.72;;;2.57;45.95
27425;BME280;15244;49.088;11.886;2023-01-29T16:56:01;96490.59;;;2.58;45.82
27425;BME280;15244;49.088;11.886;2023-01-29T17:01:09;96492.50;;;2.57;46.00
27425;BME280;15244;49.088;11.886;2023-01-29T17:06:17;96491.72;;;2.57;46.11
27425;BME280;15244;49.088;11.886;2023-01-29T17:11:26;96486.81;;;2.59;46.11
27425;BME280;15244;49.088;11.886;2023-01-29T17:16:30;96491.09;;;2.60;46.10
27425;BME280;15244;49.088;11.886;2023-01-29T17:21:33;96498.88;;;2.62;45.99
27425;BME280;15244;49.088;11.886;2023-01-29T17:26:34;96497.59;;;2.59;46.20
27425;BME280;15244;49.088;11.886;2023-01-29T17:31:36;96488.88;;;2.53;46.12
27425;BME280;15244;49.088;11.886;2023-01-29T17:36:37;96498.38;;;2.51;46.35
27425;BME280;15244;49.088;11.886;2023-01-29T17:41:39;96504.06;;;2.49;46.54
27425;BME280;15244;49.088;11.886;2023-01-29T17:46:41;96497.69;;;2.45;46.75
27425;BME280;15244;49.088;11.886;2023-01-29T17:51:43;96490.56;;;2.41;46.14
27425;BME280;15244;49.088;11.886;2023-01-29T17:56:45;96491.50;;;2.36;46.15
27425;BME280;15244;49.088;11.886;2023-01-29T18:01:47;96491.16;;;2.29;46.63
27425;BME280;15244;49.088;11.886;2023-01-29T18:06:50;96485.13;;;2.23;46.62
27425;BME280;15244;49.088;11.886;2023-01-29T18:11:53;96474.31;;;2.14;46.41
27425;BME280;15244;49.088;11.886;2023-01-29T18:16:55;96476.94;;;1.97;47.05
27425;BME280;15244;49.088;11.886;2023-01-29T18:21:58;96474.16;;;1.80;47.01
27425;BME280;15244;49.088;11.886;2023-01-29T18:27:00;96461.28;;;1.68;47.50
27425;BME280;15244;49.088;11.886;2023-01-29T18:32:01;96461.09;;;1.64;47.20
27425;BME280;15244;49.088;11.886;2023-01-29T18:37:03;96457.47;;;1.60;47.91
27425;BME280;15244;49.088;11.886;2023-01-29T18:42:04;96458.41;;;1.64;48.00
27425;BME280;15244;49.088;11.886;2023-01-29T18:47:06;96462.88;;;1.69;47.70
27425;BME280;15244;49.088;11.886;2023-01-29T18:52:08;96450.22;;;1.69;47.87
27425;BME280;15244;49.088;11.886;2023-01-29T18:57:09;96467.31;;;1.73;47.77
27425;BME280;15244;49.088;11.886;2023-01-29T19:02:16;96461.31;;;1.77;48.16
27425;BME280;15244;49.088;11.886;2023-01-29T19:07:18;96461.53;;;1.80;47.63
27425;BME280;15244;49.088;11.886;2023-01-29T19:12:20;96461.97;;;1.82;48.11
27425;BME280;15244;49.088;11.886;2023-01-29T19:17:22;96465.66;;;1.86;47.70
27425;BME280;15244;49.088;11.886;2023-01-29T19:22:24;96451.91;;;1.88;47.78
27425;BME280;15244;49.088;11.886;2023-01-29T19:27:25;96474.22;;;1.88;47.74
27425;BME280;15244;49.088;11.886;2023-01-29T19:32:31;96475.78;;;1.89;47.69
27425;BME280;15244;49.088;11.886;2023-01-29T19:37:33;96470.91;;;1.91;48.24
27425;BME280;15244;49.088;11.886;2023-01-29T19:42:34;96461.75;;;1.92;48.38
27425;BME280;15244;49.088;11.886;2023-01-29T19:47:38;96473.59;;;1.91;48.15
27425;BME280;15244;49.088;11.886;2023-01-29T19:52:40;96474.84;;;1.94;48.07
27425;BME280;15244;49.088;11.886;2023-01-29T19:57:52;96463.19;;;1.99;48.25
27425;BME280;15244;49.088;11.886;2023-01-29T20:02:53;96467.44;;;2.00;48.25
27425;BME280;15244;49.088;11.886;2023-01-29T20:07:55;96460.66;;;2.02;48.14
27425;BME280;15244;49.088;11.886;2023-01-29T20:12:57;96459.88;;;2.02;48.65
27425;BME280;15244;49.088;11.886;2023-01-29T20:17:58;96447.53;;;2.01;48.82
27425;BME280;15244;49.088;11.886;2023-01-29T20:23:00;96448.16;;;1.98;48.45
27425;BME280;15244;49.088;11.886;2023-01-29T20:28:03;96442.59;;;1.94;48.47
27425;BME280;15244;49.088;11.886;2023-01-29T20:33:06;96435.16;;;1.91;48.61
27425;BME280;15244;49.088;11.886;2023-01-29T20:38:08;96437.34;;;1.89;48.97
27425;BME280;15244;49.088;11.886;2023-01-29T20:43:10;96423.13;;;1.88;48.77
27425;BME280;15244;49.088;11.886;2023-01-29T20:48:11;96415.34;;;1.87;49.09
27425;BME280;15244;49.088;11.886;2023-01-29T20:53:13;96412.31;;;1.80;49.20
27425;BME280;15244;49.088;11.886;2023-01-29T20:58:15;96398.84;;;1.71;49.50
27425;BME280;15244;49.088;11.886;2023-01-29T21:03:17;96394.09;;;1.68;49.75
27425;BME280;15244;49.088;11.886;2023-01-29T21:08:19;96386.66;;;1.65;49.21
27425;BME280;15244;49.088;11.886;2023-01-29T21:13:20;96383.47;;;1.63;49.63
27425;BME280;15244;49.088;11.886;2023-01-29T21:18:22;96377.59;;;1.52;49.48
27425;BME280;15244;49.088;11.886;2023-01-29T21:23:26;96370.56;;;1.42;49.77
27425;BME280;15244;49.088;11.886;2023-01-29T21:28:27;96366.59;;;1.40;49.61
27425;BME280;15244;49.088;11.886;2023-01-29T21:33:29;96353.19;;;1.40;50.34
27425;BME280;15244;49.088;11.886;2023-01-29T21:38:31;96372.13;;;1.35;49.96
27425;BME280;15244;49.088;11.886;2023-01-29T21:43:33;96376.88;;;1.38;50.28
27425;BME280;15244;49.088;11.886;2023-01-29T21:48:34;96375.47;;;1.40;50.03
27425;BME280;15244;49.088;11.886;2023-01-29T21:53:36;96382.59;;;1.45;50.47
27425;BME280;15244;49.088;11.886;2023-01-29T21:58:38;96390.03;;;1.48;49.87
27425;BME280;15244;49.088;11.886;2023-01-29T22:03:39;96387.84;;;1.50;50.51
27425;BME280;15244;49.088;11.886;2023-01-29T22:08:41;96381.22;;;1.56;50.52
27425;BME280;15244;49.088;11.886;2023-01-29T22:13:43;96389.94;;;1.62;50.17
27425;BME280;15244;49.088;11.886;2023-01-29T22:18:44;96385.03;;;1.64;50.52
27425;BME280;15244;49.088;11.886;2023-01-29T22:23:47;96387.13;;;1.67;50.78
27425;BME280;15244;49.088;11.886;2023-01-29T22:28:49;96370.97;;;1.67;50.47
27425;BME280;15244;49.088;11.886;2023-01-29T22:33:51;96383.34;;;1.68;50.31
27425;BME280;15244;49.088;11.886;2023-01-29T22:38:53;96373.22;;;1.65;50.36
27425;BME280;15244;49.088;11.886;2023-01-29T22:43:55;96357.38;;;1.63;50.82
27425;BME280;15244;49.088;11.886;2023-01-29T22:48:56;96358.16;;;1.64;50.18
27425;BME280;15244;49.088;11.886;2023-01-29T22:53:58;96340.47;;;1.63;50.75
27425;BME280;15244;49.088;11.886;2023-01-29T22:59:01;96327.31;;;1.52;51.00
27425;BME280;15244;49.088;11.886;2023-01-29T23:04:03;96316.38;;;1.49;50.73
27425;BME280;15244;49.088;11.886;2023-01-29T23:09:04;96300.38;;;1.44;50.41
27425;BME280;15244;49.088;11.886;2023-01-29T23:14:06;96296.44;;;1.41;51.08
27425;BME280;15244;49.088;11.886;2023-01-29T23:19:09;96295.34;;;1.42;50.90
27425;BME280;15244;49.088;11.886;2023-01-29T23:24:11;96288.06;;;1.43;50.62
27425;BME280;15244;49.088;11.886;2023-01-29T23:29:13;96280.97;;;1.47;50.72
27425;BME280;15244;49.088;11.886;2023-01-29T23:34:15;96269.25;;;1.43;50.91
27425;BME280;15244;49.088;11.886;2023-01-29T23:39:16;96253.44;;;1.41;50.98
27425;BME280;15244;49.088;11.886;2023-01-29T23:44:18;96223.38;;;1.30;51.66
27425;BME280;15244;49.088;11.886;2023-01-29T23:49:20;96205.03;;;1.24;51.17
27425;BME280;15244;49.088;11.886;2023-01-29T23:54:22;96206.91;;;1.15;51.61
27425;BME280;15244;49.088;11.886;2023-01-29T23:59:26;96209.59;;;1.15;52.02
